createdAt,value
2019-04-25T00:01:03.858Z,0
2019-04-25T00:02:13.962Z,0
2019-04-25T00:03:24.749Z,0
2019-04-25T00:04:36.974Z,0
2019-04-25T00:05:49.531Z,0
2019-04-25T00:06:59.920Z,0
2019-04-25T00:08:11.456Z,0
2019-04-25T00:09:21.867Z,0
2019-04-25T00:10:31.975Z,0
2019-04-25T00:11:43.601Z,0
2019-04-25T00:12:56.617Z,0
2019-04-25T00:14:06.317Z,0
2019-04-25T00:15:16.016Z,0
2019-04-25T00:16:26.397Z,0
2019-04-25T00:17:36.168Z,0
2019-04-25T00:18:48.680Z,0
2019-04-25T00:20:01.573Z,0
2019-04-25T00:21:12.171Z,0
2019-04-25T00:22:21.923Z,0
2019-04-25T00:23:31.853Z,0
2019-04-25T00:24:43.215Z,0
2019-04-25T00:25:56.123Z,0
2019-04-25T00:27:07.035Z,0
2019-04-25T00:28:16.737Z,0
2019-04-25T00:29:26.947Z,0
2019-04-25T00:30:38.395Z,0
2019-04-25T00:31:54.104Z,0
2019-04-25T00:33:04.271Z,0
2019-04-25T00:34:14.545Z,0
2019-04-25T00:35:24.484Z,0
2019-04-25T00:36:34.430Z,0
2019-04-25T00:37:50.189Z,0
2019-04-25T00:39:01.925Z,0
2019-04-25T00:40:13.459Z,0
2019-04-25T00:41:23.845Z,0
2019-04-25T00:42:34.443Z,0
2019-04-25T00:43:47.739Z,0
2019-04-25T00:44:59.931Z,0
2019-04-25T00:46:11.368Z,0
2019-04-25T00:47:21.607Z,0
2019-04-25T00:48:31.731Z,0
2019-04-25T00:49:43.201Z,0
2019-04-25T00:50:58.284Z,0
2019-04-25T00:52:09.563Z,0
2019-04-25T00:53:19.275Z,0
2019-04-25T00:54:31.301Z,0
2019-04-25T00:55:41.609Z,0
2019-04-25T00:56:56.661Z,0
2019-04-25T00:58:08.195Z,0
2019-04-25T00:59:22.089Z,0
2019-04-25T01:00:32.669Z,0
2019-04-25T01:01:46.445Z,0
2019-04-25T01:02:58.555Z,0
2019-04-25T01:04:12.148Z,0
2019-04-25T01:05:21.968Z,0
2019-04-25T01:06:32.010Z,0
2019-04-25T01:07:42.251Z,0
2019-04-25T01:08:56.221Z,0
2019-04-25T01:10:07.391Z,0
2019-04-25T01:11:18.619Z,0
2019-04-25T01:12:28.898Z,0
2019-04-25T01:13:39.111Z,0
2019-04-25T01:14:52.405Z,0
2019-04-25T01:16:04.048Z,0
2019-04-25T01:17:14.157Z,0
2019-04-25T01:18:27.321Z,0
2019-04-25T01:19:39.278Z,0
2019-04-25T01:20:51.426Z,0
2019-04-25T01:22:03.818Z,0
2019-04-25T01:23:13.840Z,0
2019-04-25T01:24:24.017Z,0
2019-04-25T01:25:50.215Z,0
2019-04-25T01:27:01.536Z,0
2019-04-25T01:28:13.123Z,0
2019-04-25T01:29:23.488Z,0
2019-04-25T01:30:33.945Z,0
2019-04-25T01:31:44.018Z,0
2019-04-25T01:32:56.904Z,0
2019-04-25T01:34:06.865Z,0
2019-04-25T01:35:18.730Z,0
2019-04-25T01:36:30.381Z,0
2019-04-25T01:37:41.050Z,0
2019-04-25T01:38:53.320Z,0
2019-04-25T01:40:06.608Z,0
2019-04-25T01:41:16.793Z,0
2019-04-25T01:42:28.099Z,0
2019-04-25T01:43:40.229Z,0
2019-04-25T01:44:53.768Z,0
2019-04-25T01:46:07.895Z,0
2019-04-25T01:47:18.930Z,0
2019-04-25T01:48:30.556Z,0
2019-04-25T01:49:40.948Z,0
2019-04-25T01:50:52.822Z,0
2019-04-25T01:52:05.929Z,0
2019-04-25T01:53:17.036Z,0
2019-04-25T01:54:28.530Z,0
2019-04-25T01:55:50.831Z,0
2019-04-25T01:57:11.321Z,0
2019-04-25T01:58:23.374Z,0
2019-04-25T01:59:33.794Z,0
2019-04-25T02:00:47.178Z,0
2019-04-25T02:02:01.345Z,0
2019-04-25T02:03:15.860Z,0
2019-04-25T02:04:25.814Z,0
2019-04-25T02:05:36.025Z,0
2019-04-25T02:06:45.960Z,0
2019-04-25T02:07:58.138Z,0
2019-04-25T02:09:09.960Z,0
2019-04-25T02:10:21.321Z,0
2019-04-25T02:11:31.018Z,0
2019-04-25T02:12:41.672Z,0
2019-04-25T02:13:52.990Z,0
2019-04-25T02:15:08.358Z,0
2019-04-25T02:16:19.020Z,0
2019-04-25T02:17:28.750Z,0
2019-04-25T02:18:38.446Z,0
2019-04-25T02:19:48.734Z,0
2019-04-25T02:21:06.943Z,0
2019-04-25T02:22:17.020Z,0
2019-04-25T02:23:26.484Z,0
2019-04-25T02:24:36.387Z,0
2019-04-25T02:25:46.732Z,0
2019-04-25T02:26:59.696Z,0
2019-04-25T02:28:13.902Z,0
2019-04-25T02:29:25.945Z,0
2019-04-25T02:30:38.085Z,0
2019-04-25T02:31:49.957Z,0
2019-04-25T02:33:14.180Z,0
2019-04-25T02:34:27.538Z,0
2019-04-25T02:35:43.005Z,0
2019-04-25T02:37:02.833Z,0
2019-04-25T02:38:21.419Z,0
2019-04-25T02:39:34.796Z,0
2019-04-25T02:40:47.962Z,0
2019-04-25T02:42:06.781Z,0
2019-04-25T02:43:19.156Z,0
2019-04-25T02:44:32.032Z,0
2019-04-25T02:45:44.056Z,0
2019-04-25T02:46:54.970Z,0
2019-04-25T02:48:14.027Z,0
2019-04-25T02:49:44.662Z,0
2019-04-25T02:50:58.413Z,0
2019-04-25T02:52:20.484Z,0
2019-04-25T02:53:34.415Z,0
2019-04-25T02:54:47.404Z,0
2019-04-25T02:56:00.105Z,0
2019-04-25T02:57:17.159Z,0
2019-04-25T02:58:29.034Z,0
2019-04-25T02:59:41.736Z,0
2019-04-25T03:01:26.086Z,0
2019-04-25T03:02:38.753Z,0
2019-04-25T03:03:49.578Z,0
2019-04-25T03:05:09.858Z,0
2019-04-25T03:06:24.634Z,0
2019-04-25T03:07:37.031Z,0
2019-04-25T03:08:47.516Z,0
2019-04-25T03:10:01.972Z,0
2019-04-25T03:11:19.566Z,0
2019-04-25T03:12:41.681Z,0
2019-04-25T03:13:54.242Z,0
2019-04-25T03:15:14.423Z,0
2019-04-25T03:16:25.081Z,0
2019-04-25T03:17:36.733Z,0
2019-04-25T03:18:46.796Z,0
2019-04-25T03:19:59.798Z,0
2019-04-25T03:21:24.706Z,0
2019-04-25T03:22:37.094Z,0
2019-04-25T03:23:51.187Z,4
2019-04-25T03:25:12.838Z,4
2019-04-25T03:26:37.685Z,4
2019-04-25T03:27:48.931Z,4
2019-04-25T03:28:59.652Z,4
2019-04-25T03:30:22.163Z,8
2019-04-25T03:31:37.215Z,8
2019-04-25T03:32:56.122Z,12
2019-04-25T03:34:20.044Z,16
2019-04-25T03:35:33.252Z,24
2019-04-25T03:36:43.825Z,28
2019-04-25T03:37:54.449Z,36
2019-04-25T03:39:06.736Z,44
2019-04-25T03:40:18.746Z,56
2019-04-25T03:41:29.359Z,68
2019-04-25T03:42:39.063Z,84
2019-04-25T03:43:48.825Z,96
2019-04-25T03:44:58.785Z,120
2019-04-25T03:46:14.095Z,140
2019-04-25T03:47:25.657Z,164
2019-04-25T03:48:39.165Z,184
2019-04-25T03:49:50.599Z,212
2019-04-25T03:51:04.539Z,236
2019-04-25T03:52:16.649Z,260
2019-04-25T03:53:26.359Z,280
2019-04-25T03:54:36.047Z,304
2019-04-25T03:55:46.551Z,328
2019-04-25T03:57:01.053Z,364
2019-04-25T03:58:19.317Z,392
2019-04-25T03:59:30.520Z,424
2019-04-25T04:00:44.666Z,456
2019-04-25T04:01:56.210Z,492
2019-04-25T04:03:11.440Z,536
2019-04-25T04:04:23.781Z,572
2019-04-25T04:05:34.515Z,612
2019-04-25T04:06:44.186Z,656
2019-04-25T04:07:53.901Z,700
2019-04-25T04:09:05.482Z,744
2019-04-25T04:10:17.944Z,788
2019-04-25T04:11:28.927Z,832
2019-04-25T04:12:40.397Z,876
2019-04-25T04:13:51.743Z,924
2019-04-25T04:15:03.981Z,976
2019-04-25T04:16:17.047Z,1036
2019-04-25T04:17:28.521Z,1084
2019-04-25T04:18:38.791Z,1128
2019-04-25T04:19:50.047Z,1172
2019-04-25T04:21:01.114Z,1216
2019-04-25T04:22:15.030Z,1264
2019-04-25T04:23:25.667Z,1304
2019-04-25T04:24:36.646Z,1352
2019-04-25T04:25:48.021Z,1396
2019-04-25T04:27:15.806Z,1452
2019-04-25T04:28:26.486Z,1500
2019-04-25T04:29:37.675Z,1548
2019-04-25T04:30:50.015Z,1596
2019-04-25T04:32:02.963Z,1648
2019-04-25T04:33:34.710Z,1712
2019-04-25T04:34:47.469Z,1760
2019-04-25T04:35:59.090Z,1816
2019-04-25T04:37:13.827Z,1868
2019-04-25T04:38:26.473Z,1928
2019-04-25T04:39:36.314Z,1984
2019-04-25T04:40:46.638Z,2040
2019-04-25T04:41:57.909Z,2100
2019-04-25T04:43:10.428Z,2168
2019-04-25T04:44:24.085Z,2240
2019-04-25T04:45:34.550Z,2316
2019-04-25T04:46:44.073Z,2396
2019-04-25T04:47:53.779Z,2484
2019-04-25T04:49:03.858Z,2572
2019-04-25T04:50:16.721Z,2668
2019-04-25T04:51:28.237Z,2764
2019-04-25T04:52:38.889Z,2860
2019-04-25T04:53:48.705Z,2948
2019-04-25T04:55:18.805Z,3068
2019-04-25T04:56:34.183Z,3168
2019-04-25T04:57:46.839Z,3268
2019-04-25T04:58:58.711Z,3360
2019-04-25T05:00:08.672Z,3456
2019-04-25T05:01:20.963Z,3560
2019-04-25T05:02:33.328Z,3660
2019-04-25T05:03:44.057Z,3740
2019-04-25T05:04:56.015Z,3796
2019-04-25T05:06:06.135Z,3792
2019-04-25T05:07:17.790Z,3772
2019-04-25T05:08:29.417Z,3772
2019-04-25T05:09:40.404Z,3756
2019-04-25T05:10:51.181Z,3752
2019-04-25T05:12:04.078Z,3772
2019-04-25T05:13:15.627Z,3776
2019-04-25T05:14:29.042Z,3840
2019-04-25T05:15:40.000Z,3840
2019-04-25T05:16:53.253Z,3900
2019-04-25T05:18:04.012Z,3892
2019-04-25T05:19:15.295Z,3824
2019-04-25T05:20:26.958Z,3888
2019-04-25T05:21:36.401Z,3968
2019-04-25T05:22:46.976Z,4080
2019-04-25T05:23:56.724Z,4184
2019-04-25T05:25:08.217Z,4316
2019-04-25T05:26:21.124Z,4456
2019-04-25T05:28:07.241Z,4660
2019-04-25T05:29:26.621Z,4656
2019-04-25T05:30:38.416Z,4820
2019-04-25T05:31:50.154Z,5032
2019-04-25T05:33:01.351Z,5236
2019-04-25T05:34:13.382Z,5424
2019-04-25T05:35:27.855Z,5512
2019-04-25T05:36:38.545Z,5580
2019-04-25T05:37:48.172Z,5644
2019-04-25T05:38:58.696Z,5712
2019-04-25T05:40:09.934Z,5792
2019-04-25T05:41:26.766Z,5880
2019-04-25T05:42:37.978Z,5976
2019-04-25T05:43:48.334Z,6064
2019-04-25T05:44:58.910Z,6156
2019-04-25T05:46:10.542Z,6264
2019-04-25T05:47:29.273Z,6412
2019-04-25T05:48:41.297Z,6544
2019-04-25T05:49:51.456Z,6684
2019-04-25T05:51:01.796Z,6824
2019-04-25T05:52:11.785Z,6948
2019-04-25T05:53:25.312Z,7048
2019-04-25T05:54:36.554Z,7092
2019-04-25T05:55:46.350Z,7120
2019-04-25T05:56:56.308Z,7132
2019-04-25T05:58:06.312Z,7112
2019-04-25T05:59:15.889Z,7088
2019-04-25T06:00:27.492Z,7064
2019-04-25T06:01:40.507Z,7060
2019-04-25T06:02:53.446Z,7052
2019-04-25T06:04:03.617Z,7064
2019-04-25T06:05:15.610Z,7104
2019-04-25T06:06:28.282Z,7140
2019-04-25T06:07:38.251Z,7156
2019-04-25T06:08:48.726Z,7156
2019-04-25T06:09:59.360Z,7176
2019-04-25T06:11:11.143Z,7204
2019-04-25T06:12:23.660Z,7312
2019-04-25T06:13:35.873Z,7448
2019-04-25T06:14:45.834Z,7540
2019-04-25T06:15:55.554Z,7540
2019-04-25T06:17:05.886Z,7472
2019-04-25T06:18:16.465Z,7376
2019-04-25T06:19:30.293Z,7284
2019-04-25T06:20:41.674Z,7204
2019-04-25T06:21:53.473Z,7116
2019-04-25T06:23:03.514Z,6960
2019-04-25T06:24:13.465Z,6896
2019-04-25T06:25:38.888Z,6812
2019-04-25T06:26:51.048Z,6820
2019-04-25T06:28:06.233Z,6868
2019-04-25T06:29:15.947Z,6936
2019-04-25T06:30:28.035Z,7024
2019-04-25T06:31:38.990Z,7136
2019-04-25T06:32:48.710Z,7252
2019-04-25T06:34:00.976Z,7356
2019-04-25T06:35:12.234Z,7392
2019-04-25T06:36:24.510Z,7372
2019-04-25T06:37:37.453Z,7368
2019-04-25T06:38:49.113Z,7376
2019-04-25T06:40:00.580Z,7456
2019-04-25T06:41:11.347Z,7548
2019-04-25T06:42:21.291Z,7736
2019-04-25T06:43:36.592Z,8052
2019-04-25T06:44:48.326Z,8212
2019-04-25T06:46:00.094Z,8284
2019-04-25T06:47:12.967Z,8260
2019-04-25T06:48:24.939Z,8164
2019-04-25T06:49:40.900Z,8048
2019-04-25T06:50:51.026Z,7980
2019-04-25T06:52:01.350Z,7972
2019-04-25T06:53:13.554Z,7992
2019-04-25T06:54:25.646Z,8004
2019-04-25T06:55:39.055Z,8012
2019-04-25T06:56:50.646Z,7912
2019-04-25T06:58:16.733Z,7672
2019-04-25T06:59:32.276Z,7380
2019-04-25T07:01:05.915Z,7040
2019-04-25T07:02:16.470Z,6832
2019-04-25T07:03:29.159Z,6684
2019-04-25T07:04:41.673Z,6620
2019-04-25T07:05:53.538Z,6556
2019-04-25T07:07:17.406Z,6456
2019-04-25T07:08:30.992Z,6388
2019-04-25T07:09:43.346Z,6344
2019-04-25T07:10:53.784Z,6324
2019-04-25T07:12:06.046Z,6324
2019-04-25T07:13:16.717Z,6284
2019-04-25T07:14:28.267Z,6232
2019-04-25T07:15:40.961Z,6172
2019-04-25T07:16:51.116Z,6128
2019-04-25T07:18:00.964Z,6084
2019-04-25T07:19:11.808Z,6060
2019-04-25T07:20:26.053Z,6020
2019-04-25T07:21:39.928Z,6000
2019-04-25T07:22:50.732Z,5980
2019-04-25T07:24:01.373Z,5980
2019-04-25T07:25:13.160Z,5972
2019-04-25T07:26:24.317Z,5968
2019-04-25T07:27:37.911Z,5964
2019-04-25T07:28:48.867Z,5964
2019-04-25T07:29:58.820Z,5964
2019-04-25T07:31:10.774Z,5968
2019-04-25T07:32:21.694Z,5972
2019-04-25T07:33:38.215Z,5976
2019-04-25T07:34:48.691Z,5980
2019-04-25T07:36:01.764Z,5984
2019-04-25T07:37:13.224Z,5988
2019-04-25T07:38:23.739Z,5992
2019-04-25T07:39:36.785Z,5992
2019-04-25T07:40:47.668Z,6004
2019-04-25T07:41:58.632Z,6008
2019-04-25T07:43:09.707Z,6020
2019-04-25T07:44:49.091Z,6036
2019-04-25T07:46:03.354Z,6052
2019-04-25T07:47:13.662Z,6068
2019-04-25T07:48:26.876Z,6084
2019-04-25T07:49:40.287Z,6100
2019-04-25T07:50:50.862Z,6120
2019-04-25T07:52:01.092Z,6144
2019-04-25T07:53:14.208Z,6172
2019-04-25T07:54:25.497Z,6196
2019-04-25T07:55:41.254Z,6224
2019-04-25T07:56:50.954Z,6248
2019-04-25T07:58:03.151Z,6272
2019-04-25T07:59:13.837Z,6296
2019-04-25T08:00:24.112Z,6204
2019-04-25T08:01:39.841Z,6364
2019-04-25T08:02:50.846Z,6392
2019-04-25T08:04:03.491Z,6416
2019-04-25T08:05:14.351Z,6456
2019-04-25T08:06:27.733Z,6476
2019-04-25T08:07:40.796Z,6512
2019-04-25T08:08:51.339Z,6576
2019-04-25T08:10:02.000Z,6644
2019-04-25T08:11:11.712Z,6704
2019-04-25T08:12:21.877Z,6764
2019-04-25T08:13:35.999Z,6844
2019-04-25T08:14:48.128Z,6932
2019-04-25T08:15:58.673Z,7016
2019-04-25T08:17:08.617Z,7108
2019-04-25T08:18:18.743Z,7212
2019-04-25T08:19:34.371Z,7260
2019-04-25T08:20:46.536Z,7452
2019-04-25T08:21:58.161Z,7612
2019-04-25T08:23:09.026Z,7740
2019-04-25T08:24:18.994Z,7816
2019-04-25T08:25:33.376Z,8024
2019-04-25T08:26:48.494Z,8132
2019-04-25T08:27:59.981Z,8244
2019-04-25T08:29:12.905Z,8332
2019-04-25T08:30:23.976Z,8476
2019-04-25T08:31:37.714Z,8532
2019-04-25T08:32:48.915Z,8596
2019-04-25T08:33:58.429Z,8984
2019-04-25T08:35:08.357Z,8948
2019-04-25T08:36:18.584Z,9268
2019-04-25T08:37:29.553Z,9312
2019-04-25T08:38:44.672Z,9348
2019-04-25T08:39:56.217Z,9508
2019-04-25T08:41:06.583Z,9196
2019-04-25T08:42:17.856Z,9400
2019-04-25T08:43:29.987Z,9396
2019-04-25T08:44:47.174Z,8824
2019-04-25T08:45:59.143Z,8268
2019-04-25T08:47:09.110Z,7972
2019-04-25T08:48:20.741Z,7704
2019-04-25T08:49:31.242Z,8076
2019-04-25T08:50:48.548Z,9548
2019-04-25T08:52:00.403Z,9016
2019-04-25T08:53:11.826Z,7880
2019-04-25T08:54:23.600Z,9488
2019-04-25T08:55:35.809Z,9076
2019-04-25T08:56:48.767Z,9876
2019-04-25T08:57:58.609Z,10000
2019-04-25T08:59:14.226Z,10152
2019-04-25T09:00:24.272Z,10432
2019-04-25T09:01:39.344Z,9820
2019-04-25T09:02:52.504Z,10348
2019-04-25T09:04:04.680Z,10668
2019-04-25T09:05:18.361Z,10788
2019-04-25T09:06:28.955Z,10752
2019-04-25T09:07:46.219Z,10908
2019-04-25T09:08:56.512Z,10968
2019-04-25T09:10:08.312Z,11036
2019-04-25T09:11:18.274Z,11176
2019-04-25T09:12:28.835Z,11320
2019-04-25T09:13:45.038Z,11492
2019-04-25T09:14:54.562Z,11652
2019-04-25T09:16:05.978Z,11828
2019-04-25T09:17:16.703Z,11932
2019-04-25T09:18:26.665Z,11944
2019-04-25T09:19:39.946Z,12168
2019-04-25T09:20:54.035Z,12232
2019-04-25T09:22:05.653Z,12384
2019-04-25T09:23:16.120Z,12600
2019-04-25T09:24:27.050Z,12772
2019-04-25T09:25:39.500Z,12888
2019-04-25T09:26:53.911Z,13060
2019-04-25T09:28:04.357Z,13184
2019-04-25T09:29:25.984Z,13360
2019-04-25T09:30:38.282Z,13532
2019-04-25T09:31:50.557Z,13712
2019-04-25T09:33:01.397Z,13848
2019-04-25T09:34:13.892Z,13944
2019-04-25T09:35:26.084Z,14172
2019-04-25T09:36:36.114Z,14212
2019-04-25T09:37:47.711Z,13212
2019-04-25T09:38:58.649Z,13704
2019-04-25T09:40:09.068Z,15072
2019-04-25T09:41:20.148Z,15776
2019-04-25T09:42:31.078Z,15904
2019-04-25T09:43:44.208Z,16192
2019-04-25T09:44:56.180Z,16512
2019-04-25T09:46:07.586Z,16736
2019-04-25T09:47:18.165Z,17024
2019-04-25T09:48:28.119Z,17248
2019-04-25T09:49:40.412Z,17376
2019-04-25T09:50:53.489Z,17728
2019-04-25T09:52:03.392Z,17440
2019-04-25T09:53:28.174Z,17184
2019-04-25T09:54:38.743Z,17056
2019-04-25T09:55:54.277Z,16896
2019-04-25T09:57:06.102Z,16960
2019-04-25T09:58:16.392Z,16768
2019-04-25T09:59:36.406Z,17248
2019-04-25T10:00:50.067Z,17344
2019-04-25T10:02:00.021Z,17824
2019-04-25T10:03:13.373Z,18016
2019-04-25T10:04:25.432Z,17952
2019-04-25T10:05:37.020Z,18368
2019-04-25T10:06:49.985Z,19008
2019-04-25T10:08:01.194Z,16672
2019-04-25T10:09:13.524Z,18528
2019-04-25T10:10:26.559Z,18720
2019-04-25T10:11:38.374Z,17504
2019-04-25T10:12:50.128Z,17792
2019-04-25T10:14:02.166Z,20416
2019-04-25T10:15:12.813Z,21472
2019-04-25T10:16:23.844Z,23232
2019-04-25T10:17:33.763Z,24960
2019-04-25T10:18:48.426Z,23968
2019-04-25T10:19:57.638Z,22816
2019-04-25T10:21:09.114Z,25024
2019-04-25T10:22:18.834Z,25504
2019-04-25T10:23:28.918Z,25952
2019-04-25T10:24:39.985Z,23936
2019-04-25T10:25:53.696Z,23776
2019-04-25T10:27:03.749Z,25024
2019-04-25T10:28:13.511Z,25472
2019-04-25T10:29:23.214Z,26560
2019-04-25T10:30:34.270Z,28192
2019-04-25T10:31:47.310Z,28192
2019-04-25T10:32:59.572Z,26368
2019-04-25T10:34:11.009Z,27040
2019-04-25T10:35:21.871Z,29888
2019-04-25T10:36:33.435Z,29728
2019-04-25T10:37:50.866Z,29056
2019-04-25T10:39:17.175Z,31808
2019-04-25T10:40:29.423Z,31296
2019-04-25T10:41:49.572Z,31328
2019-04-25T10:43:00.570Z,33408
2019-04-25T10:44:11.677Z,33472
2019-04-25T10:45:30.684Z,33824
2019-04-25T10:46:43.191Z,33536
2019-04-25T10:47:57.696Z,34176
2019-04-25T10:49:09.257Z,35232
2019-04-25T10:50:20.465Z,35584
2019-04-25T10:51:31.519Z,36096
2019-04-25T10:52:42.168Z,37184
2019-04-25T10:53:57.231Z,35232
2019-04-25T10:55:08.935Z,36832
2019-04-25T10:56:19.117Z,39488
2019-04-25T10:57:30.996Z,39936
2019-04-25T10:58:44.360Z,39552
2019-04-25T11:00:14.112Z,38144
2019-04-25T11:01:24.544Z,39424
2019-04-25T11:02:36.399Z,39616
2019-04-25T11:03:51.671Z,38560
2019-04-25T11:05:03.531Z,40704
2019-04-25T11:06:14.101Z,43200
2019-04-25T11:07:25.850Z,42176
2019-04-25T11:08:36.545Z,42592
2019-04-25T11:09:51.321Z,44480
2019-04-25T11:11:03.723Z,44896
2019-04-25T11:12:13.813Z,44608
2019-04-25T11:13:23.533Z,44992
2019-04-25T11:14:34.213Z,46144
2019-04-25T11:15:45.249Z,45760
2019-04-25T11:16:57.588Z,45088
2019-04-25T11:18:08.689Z,47040
2019-04-25T11:19:20.191Z,47328
2019-04-25T11:20:31.582Z,47040
2019-04-25T11:21:42.656Z,47008
2019-04-25T11:22:55.862Z,48128
2019-04-25T11:24:06.515Z,49408
2019-04-25T11:25:17.397Z,50912
2019-04-25T11:26:27.370Z,50464
2019-04-25T11:27:38.813Z,52000
2019-04-25T11:28:52.086Z,53376
2019-04-25T11:30:16.407Z,51584
2019-04-25T11:31:28.251Z,51360
2019-04-25T11:32:38.784Z,50016
2019-04-25T11:33:48.534Z,50528
2019-04-25T11:34:59.777Z,52800
2019-04-25T11:36:13.057Z,54880
2019-04-25T11:37:23.841Z,56448
2019-04-25T11:38:36.326Z,57248
2019-04-25T11:39:48.482Z,56384
2019-04-25T11:40:59.692Z,56032
2019-04-25T11:42:11.319Z,58176
2019-04-25T11:43:22.666Z,57600
2019-04-25T11:44:33.248Z,59168
2019-04-25T11:45:45.071Z,58432
2019-04-25T11:46:56.643Z,61024
2019-04-25T11:48:07.753Z,61472
2019-04-25T11:49:19.833Z,59968
2019-04-25T11:50:31.403Z,59808
2019-04-25T11:51:41.796Z,57472
2019-04-25T11:52:56.150Z,59872
2019-04-25T11:54:08.344Z,60128
2019-04-25T11:55:19.156Z,63552
2019-04-25T11:56:29.087Z,67072
2019-04-25T11:57:38.810Z,66592
2019-04-25T11:58:54.918Z,64416
2019-04-25T12:00:06.677Z,59136
2019-04-25T12:01:28.980Z,55168
2019-04-25T12:02:39.243Z,53952
2019-04-25T12:03:52.694Z,61376
2019-04-25T12:05:03.478Z,64000
2019-04-25T12:06:16.590Z,69632
2019-04-25T12:07:26.162Z,74784
2019-04-25T12:08:36.122Z,72832
2019-04-25T12:09:49.948Z,75008
2019-04-25T12:11:01.974Z,72576
2019-04-25T12:12:14.610Z,72320
2019-04-25T12:13:26.848Z,73696
2019-04-25T12:14:38.660Z,72672
2019-04-25T12:15:52.277Z,73696
2019-04-25T12:17:03.837Z,77024
2019-04-25T12:18:13.914Z,77024
2019-04-25T12:19:38.113Z,76256
2019-04-25T12:20:51.129Z,77696
2019-04-25T12:22:06.273Z,76960
2019-04-25T12:23:19.007Z,76288
2019-04-25T12:24:28.986Z,79904
2019-04-25T12:25:38.898Z,79744
2019-04-25T12:26:54.743Z,79488
2019-04-25T12:28:06.952Z,81600
2019-04-25T12:29:16.905Z,79072
2019-04-25T12:30:43.826Z,81632
2019-04-25T12:31:57.245Z,77920
2019-04-25T12:33:21.521Z,81888
2019-04-25T12:34:31.627Z,82144
2019-04-25T12:35:41.585Z,85056
2019-04-25T12:36:54.219Z,85664
2019-04-25T12:38:05.879Z,85280
2019-04-25T12:39:16.494Z,85792
2019-04-25T12:40:26.740Z,80096
2019-04-25T12:41:36.465Z,81088
2019-04-25T12:42:47.840Z,76224
2019-04-25T12:43:59.975Z,75776
2019-04-25T12:45:11.381Z,73568
2019-04-25T12:46:21.567Z,75392
2019-04-25T12:47:31.554Z,80992
2019-04-25T12:48:43.179Z,79520
2019-04-25T12:49:56.013Z,81824
2019-04-25T12:51:05.685Z,87360
2019-04-25T12:52:15.414Z,88736
2019-04-25T12:53:26.003Z,93888
2019-04-25T12:54:36.382Z,89184
2019-04-25T12:55:47.343Z,92032
2019-04-25T12:56:59.874Z,95840
2019-04-25T12:58:13.519Z,88352
2019-04-25T12:59:23.621Z,94272
2019-04-25T13:00:34.167Z,89536
2019-04-25T13:02:00.147Z,90336
2019-04-25T13:03:14.386Z,89664
2019-04-25T13:04:24.463Z,90080
2019-04-25T13:05:34.432Z,90400
2019-04-25T13:06:44.149Z,89824
2019-04-25T13:07:59.589Z,89088
2019-04-25T13:09:12.637Z,89088
2019-04-25T13:10:23.574Z,91616
2019-04-25T13:11:34.805Z,92416
2019-04-25T13:12:44.845Z,90400
2019-04-25T13:13:54.814Z,92320
2019-04-25T13:15:04.785Z,91712
2019-04-25T13:16:15.608Z,96288
2019-04-25T13:17:26.580Z,96448
2019-04-25T13:18:36.036Z,95072
2019-04-25T13:19:46.559Z,96192
2019-04-25T13:20:58.587Z,91712
2019-04-25T13:22:08.098Z,98784
2019-04-25T13:23:19.229Z,94656
2019-04-25T13:24:28.949Z,92032
2019-04-25T13:25:39.128Z,94560
2019-04-25T13:26:50.382Z,95520
2019-04-25T13:28:04.000Z,92000
2019-04-25T13:29:16.378Z,91424
2019-04-25T13:30:28.985Z,91168
2019-04-25T13:31:40.451Z,89920
2019-04-25T13:32:51.967Z,93664
2019-04-25T13:34:02.162Z,100256
2019-04-25T13:35:16.017Z,96352
2019-04-25T13:36:25.738Z,98464
2019-04-25T13:37:36.594Z,92064
2019-04-25T13:38:47.704Z,98368
2019-04-25T13:40:00.656Z,88192
2019-04-25T13:41:11.324Z,101152
2019-04-25T13:42:23.099Z,89568
2019-04-25T13:43:32.745Z,95712
2019-04-25T13:44:44.158Z,96032
2019-04-25T13:45:53.518Z,96768
2019-04-25T13:47:04.058Z,96768
2019-04-25T13:48:15.657Z,99168
2019-04-25T13:49:25.383Z,101824
2019-04-25T13:50:36.832Z,107296
2019-04-25T13:51:46.554Z,95232
2019-04-25T13:52:58.115Z,95424
2019-04-25T13:54:08.081Z,113120
2019-04-25T13:55:18.236Z,107616
2019-04-25T13:56:33.704Z,117344
2019-04-25T13:57:48.234Z,97216
2019-04-25T13:58:58.818Z,102368
2019-04-25T14:00:08.977Z,97472
2019-04-25T14:01:24.614Z,97632
2019-04-25T14:02:36.269Z,96800
2019-04-25T14:03:46.844Z,100544
2019-04-25T14:04:56.565Z,89280
2019-04-25T14:06:08.184Z,94400
2019-04-25T14:07:17.893Z,96128
2019-04-25T14:08:33.369Z,108416
2019-04-25T14:09:44.695Z,103616
2019-04-25T14:10:54.663Z,90560
2019-04-25T14:12:06.398Z,99424
2019-04-25T14:13:16.129Z,88704
2019-04-25T14:14:26.847Z,71744
2019-04-25T14:15:39.678Z,108160
2019-04-25T14:16:50.999Z,88512
2019-04-25T14:18:03.638Z,102944
2019-04-25T14:19:14.715Z,102560
2019-04-25T14:20:28.760Z,105216
2019-04-25T14:21:40.587Z,103392
2019-04-25T14:22:53.607Z,96992
2019-04-25T14:24:03.692Z,99680
2019-04-25T14:25:14.782Z,100480
2019-04-25T14:26:25.548Z,103360
2019-04-25T14:27:36.491Z,93440
2019-04-25T14:28:46.749Z,100000
2019-04-25T14:29:58.080Z,106816
2019-04-25T14:31:07.546Z,104864
2019-04-25T14:32:17.524Z,97152
2019-04-25T14:33:31.113Z,96576
2019-04-25T14:34:43.249Z,100000
2019-04-25T14:35:54.783Z,95040
2019-04-25T14:37:04.623Z,90688
2019-04-25T14:38:16.239Z,104416
2019-04-25T14:39:26.109Z,106720
2019-04-25T14:40:37.817Z,97056
2019-04-25T14:41:49.902Z,113056
2019-04-25T14:42:59.878Z,106080
2019-04-25T14:44:09.887Z,97472
2019-04-25T14:45:19.868Z,95424
2019-04-25T14:46:32.306Z,96000
2019-04-25T14:47:43.340Z,93952
2019-04-25T14:48:55.102Z,69536
2019-04-25T14:50:05.066Z,92640
2019-04-25T14:51:17.702Z,96320
2019-04-25T14:52:29.249Z,105376
2019-04-25T14:53:42.226Z,94624
2019-04-25T14:54:51.953Z,92384
2019-04-25T14:56:01.919Z,95360
2019-04-25T14:57:11.917Z,99232
2019-04-25T14:58:22.817Z,98784
2019-04-25T14:59:33.943Z,98016
2019-04-25T15:00:43.931Z,101536
2019-04-25T15:01:53.902Z,91712
2019-04-25T15:03:03.382Z,98496
2019-04-25T15:04:13.367Z,99520
2019-04-25T15:05:23.429Z,102400
2019-04-25T15:06:34.492Z,97856
2019-04-25T15:07:45.416Z,97280
2019-04-25T15:08:55.682Z,95232
2019-04-25T15:10:05.382Z,98336
2019-04-25T15:11:14.860Z,99744
2019-04-25T15:12:26.840Z,99584
2019-04-25T15:13:37.658Z,98336
2019-04-25T15:14:47.385Z,99744
2019-04-25T15:15:57.122Z,95840
2019-04-25T15:17:06.590Z,100064
2019-04-25T15:18:16.549Z,94368
2019-04-25T15:19:27.602Z,96512
2019-04-25T15:20:37.584Z,94880
2019-04-25T15:21:47.618Z,92512
2019-04-25T15:22:57.341Z,99936
2019-04-25T15:24:07.550Z,96640
2019-04-25T15:25:17.270Z,100864
2019-04-25T15:26:27.708Z,102208
2019-04-25T15:27:38.778Z,90944
2019-04-25T15:28:48.771Z,89248
2019-04-25T15:29:58.795Z,90240
2019-04-25T15:31:08.546Z,87168
2019-04-25T15:32:18.552Z,90912
2019-04-25T15:33:29.067Z,89792
2019-04-25T15:34:39.033Z,79808
2019-04-25T15:35:50.326Z,91328
2019-04-25T15:37:00.048Z,88960
2019-04-25T15:38:10.044Z,90912
2019-04-25T15:39:20.086Z,98432
2019-04-25T15:40:31.364Z,93280
2019-04-25T15:41:42.254Z,89184
2019-04-25T15:42:52.244Z,80416
2019-04-25T15:44:01.993Z,98688
2019-04-25T15:45:11.468Z,91936
2019-04-25T15:46:20.933Z,86400
2019-04-25T15:47:32.228Z,85504
2019-04-25T15:48:41.965Z,81664
2019-04-25T15:49:51.939Z,88096
2019-04-25T15:51:01.916Z,81088
2019-04-25T15:52:11.639Z,83328
2019-04-25T15:53:21.626Z,84864
2019-04-25T15:54:32.106Z,85536
2019-04-25T15:55:42.906Z,86272
2019-04-25T15:56:52.976Z,83008
2019-04-25T15:58:03.011Z,83072
2019-04-25T15:59:13.003Z,82432
2019-04-25T16:00:23.002Z,79968
2019-04-25T16:01:35.516Z,84096
2019-04-25T16:02:46.195Z,79520
2019-04-25T16:03:57.417Z,73248
2019-04-25T16:05:07.383Z,81888
2019-04-25T16:06:17.406Z,70272
2019-04-25T16:07:27.212Z,77600
2019-04-25T16:08:37.871Z,80288
2019-04-25T16:09:48.463Z,78688